Time;durP1;ratioP1;P1;durP2;ratioP2;P2;SDS_P1;SDS_P2;PMS_P1;PMS_P2;Temp;Humidity;BMP_temperature;BMP_pressure;BME280_temperature;BME280_humidity;BME280_pressure;Samples;Min_cycle;Max_cycle;Signal;HPM_P1;HPM_P2
2021/12/23 00:01:15;;;;;;;37.93;23.97;;;;;;;-3.92;92.30;98468.56;5078509;28;20433;-69
2021/12/23 00:03:41;;;;;;;41.43;24.20;;;;;;;-3.76;91.75;98460.41;5078423;28;20429;-70
2021/12/23 00:06:08;;;;;;;40.17;24.23;;;;;;;-3.81;91.40;98455.53;5078321;28;20532;-70
2021/12/23 00:08:34;;;;;;;38.83;23.67;;;;;;;-3.72;92.05;98457.41;5078393;28;20468;-70
2021/12/23 00:11:00;;;;;;;38.33;23.50;;;;;;;-3.64;91.58;98456.81;5078039;28;20464;-70
2021/12/23 00:13:27;;;;;;;41.10;24.37;;;;;;;-3.73;91.14;98442.78;5078176;28;20440;-70
2021/12/23 00:16:16;;;;;;;39.43;24.90;;;;;;;-3.66;91.26;98446.53;5078174;28;20461;-71
2021/12/23 00:18:48;;;;;;;40.47;25.40;;;;;;;-3.75;91.10;98451.66;5078164;28;20418;-70
2021/12/23 00:24:00;;;;;;;39.90;24.10;;;;;;;-3.72;90.80;98448.78;5077842;28;20392;-70
2021/12/23 00:26:28;;;;;;;39.90;24.27;;;;;;;-3.82;91.01;98447.88;5077929;28;20472;-70
2021/12/23 00:28:54;;;;;;;37.23;22.87;;;;;;;-3.86;91.18;98446.44;5077884;28;20457;-70
2021/12/23 00:31:21;;;;;;;34.87;23.17;;;;;;;-3.93;91.16;98438.31;5077879;28;20421;-70
2021/12/23 00:33:48;;;;;;;39.00;25.23;;;;;;;-3.94;92.00;98441.06;5077899;28;20520;-70
2021/12/23 00:36:14;;;;;;;34.90;23.60;;;;;;;-3.96;91.39;98435.97;5077996;28;20461;-70
2021/12/23 00:38:46;;;;;;;35.67;23.30;;;;;;;-3.96;91.58;98425.59;5077733;28;20436;-70
2021/12/23 00:41:13;;;;;;;40.10;23.83;;;;;;;-3.98;91.62;98427.47;5077723;28;20426;-70
2021/12/23 00:43:40;;;;;;;39.37;24.50;;;;;;;-3.89;92.31;98429.34;5077636;28;20765;-70
2021/12/23 00:46:06;;;;;;;36.87;24.43;;;;;;;-3.81;91.63;98415.75;5077536;28;20748;-70
2021/12/23 00:48:35;;;;;;;39.50;24.20;;;;;;;-3.72;91.53;98417.63;5077756;28;20461;-70
2021/12/23 00:51:02;;;;;;;37.93;23.90;;;;;;;-3.76;91.18;98411.03;5077532;28;20525;-70
2021/12/23 00:53:35;;;;;;;41.03;24.00;;;;;;;-3.81;91.14;98408.78;5077459;28;20422;-70
2021/12/23 00:56:01;;;;;;;37.37;23.80;;;;;;;-3.86;91.02;98403.13;5077254;28;20452;-70
2021/12/23 00:58:28;;;;;;;39.03;23.67;;;;;;;-3.85;91.13;98409.97;5076858;28;20492;-70
2021/12/23 01:00:54;;;;;;;36.37;23.60;;;;;;;-3.94;91.67;98412.50;5077355;28;20422;-70
2021/12/23 01:03:21;;;;;;;36.60;23.77;;;;;;;-3.92;91.34;98415.78;5077499;28;20425;-71
2021/12/23 01:05:47;;;;;;;39.23;24.30;;;;;;;-3.98;91.65;98418.88;5077574;28;20476;-70
2021/12/23 01:08:15;;;;;;;37.73;25.07;;;;;;;-4.00;92.48;98421.59;5077041;28;20840;-71
2021/12/23 01:10:41;;;;;;;39.47;24.60;;;;;;;-3.83;91.56;98409.88;5076911;28;20448;-70
2021/12/23 01:13:13;;;;;;;35.73;22.63;;;;;;;-3.87;91.42;98398.91;5076756;28;20854;-70
2021/12/23 01:15:58;;;;;;;38.03;23.70;;;;;;;-3.83;91.61;98402.06;5076987;28;20457;-70
2021/12/23 01:18:25;;;;;;;37.17;23.33;;;;;;;-3.89;91.42;98408.56;5077008;28;20433;-70
2021/12/23 01:20:52;;;;;;;36.63;23.47;;;;;;;-3.83;91.07;98402.91;5076988;28;20427;-70
2021/12/23 01:23:24;;;;;;;38.70;23.87;;;;;;;-3.81;91.86;98403.59;5076599;28;20736;-70
2021/12/23 01:25:52;;;;;;;36.03;22.27;;;;;;;-3.87;91.48;98400.66;5076507;28;20758;-70
2021/12/23 01:28:20;;;;;;;38.67;23.70;;;;;;;-3.91;91.75;98400.09;5076791;28;20465;-70
2021/12/23 01:30:46;;;;;;;40.73;24.27;;;;;;;-3.90;92.27;98390.50;5076886;28;20428;-70
2021/12/23 01:33:13;;;;;;;39.50;23.73;;;;;;;-3.74;91.27;98386.59;5076859;28;20426;-70
2021/12/23 01:35:41;;;;;;;38.70;23.97;;;;;;;-3.79;90.98;98383.50;5076717;28;20453;-70
2021/12/23 01:38:09;;;;;;;37.10;23.57;;;;;;;-3.65;90.90;98380.66;5076780;28;20504;-71
2021/12/23 01:40:36;;;;;;;38.23;23.83;;;;;;;-3.62;90.74;98371.78;5076761;28;20417;-70
2021/12/23 01:43:04;;;;;;;38.23;23.60;;;;;;;-3.63;90.11;98370.97;5076735;28;20429;-70
2021/12/23 01:45:33;;;;;;;40.67;24.10;;;;;;;-3.58;90.31;98353.22;5076619;28;20457;-70
2021/12/23 01:48:03;;;;;;;38.60;24.10;;;;;;;-3.66;90.27;98357.41;5076556;28;20472;-70
2021/12/23 01:50:30;;;;;;;41.73;24.17;;;;;;;-3.58;90.13;98355.81;5076579;28;20521;-70
2021/12/23 01:53:00;;;;;;;36.07;23.67;;;;;;;-3.66;89.59;98347.00;5076585;28;20432;-70
2021/12/23 01:55:28;;;;;;;35.83;22.57;;;;;;;-3.68;89.54;98362.72;5076736;28;20457;-70
2021/12/23 01:57:55;;;;;;;37.93;24.07;;;;;;;-3.69;90.02;98361.06;5076552;28;20437;-70
2021/12/23 02:00:24;;;;;;;37.80;24.37;;;;;;;-3.64;89.92;98363.28;5076545;28;20421;-70
2021/12/23 02:02:53;;;;;;;35.10;22.00;;;;;;;-3.64;89.05;98351.13;5076501;28;20426;-70
2021/12/23 02:05:20;;;;;;;38.03;24.27;;;;;;;-3.61;89.34;98347.47;5076082;28;20923;-71
2021/12/23 02:07:47;;;;;;;33.23;21.77;;;;;;;-3.55;89.13;98342.59;5076384;28;20425;-70
2021/12/23 02:10:13;;;;;;;34.80;21.73;;;;;;;-3.57;88.42;98341.88;5078188;28;20417;-70
2021/12/23 02:12:44;;;;;;;35.77;22.47;;;;;;;-3.62;88.84;98343.22;5080216;28;20742;-70
2021/12/23 02:15:12;;;;;;;33.43;21.73;;;;;;;-3.72;89.25;98340.53;5080463;28;20459;-70
2021/12/23 02:17:39;;;;;;;38.20;23.90;;;;;;;-3.76;89.78;98341.72;5080473;28;20441;-70
2021/12/23 02:20:11;;;;;;;37.30;23.60;;;;;;;-3.78;89.15;98335.84;5080128;28;20420;-70
2021/12/23 02:22:39;;;;;;;34.53;22.37;;;;;;;-3.81;89.23;98333.47;5080343;28;20421;-70
2021/12/23 02:25:08;;;;;;;34.80;21.03;;;;;;;-3.78;89.55;98329.81;5080291;28;20449;-70
2021/12/23 02:27:35;;;;;;;33.83;21.47;;;;;;;-3.78;89.07;98324.59;5080318;28;20424;-70
2021/12/23 02:30:04;;;;;;;34.73;21.83;;;;;;;-3.92;88.97;98324.91;5080176;28;20469;-70
2021/12/23 02:32:31;;;;;;;38.37;22.87;;;;;;;-3.87;89.46;98318.41;5080195;28;20417;-70
2021/12/23 02:34:57;;;;;;;33.57;22.73;;;;;;;-3.89;89.10;98325.47;5079747;28;20456;-71
2021/12/23 02:37:23;;;;;;;32.80;21.33;;;;;;;-3.89;88.52;98328.06;5080040;28;20445;-70
2021/12/23 02:39:50;;;;;;;35.90;22.17;;;;;;;-3.82;88.89;98315.41;5080041;28;20435;-70
2021/12/23 02:42:16;;;;;;;33.80;21.30;;;;;;;-3.88;88.67;98301.13;5080022;28;20421;-70
2021/12/23 02:44:42;;;;;;;34.50;22.37;;;;;;;-3.87;88.89;98301.97;5079573;28;20461;-71
2021/12/23 02:47:09;;;;;;;32.73;21.93;;;;;;;-3.83;88.59;98303.38;5080136;28;20452;-69
2021/12/23 02:49:35;;;;;;;33.40;20.80;;;;;;;-3.81;88.56;98304.91;5079747;28;20468;-70
2021/12/23 02:52:01;;;;;;;34.40;22.77;;;;;;;-3.88;88.52;98300.34;5079732;28;20432;-70
2021/12/23 02:54:28;;;;;;;33.13;22.07;;;;;;;-3.89;88.09;98299.50;5079380;28;20740;-70
2021/12/23 02:56:55;;;;;;;32.63;20.87;;;;;;;-3.83;87.36;98301.63;5080219;28;20422;-70
2021/12/23 02:59:21;;;;;;;34.40;21.90;;;;;;;-3.82;87.69;98294.63;5079679;28;20426;-70
2021/12/23 03:01:48;;;;;;;34.13;21.50;;;;;;;-3.88;88.32;98301.13;5079368;28;20433;-70
2021/12/23 03:04:14;;;;;;;33.07;20.67;;;;;;;-3.90;88.59;98297.03;5079506;28;20429;-70
2021/12/23 03:06:40;;;;;;;32.00;21.10;;;;;;;-3.83;88.20;98298.19;5079111;28;20927;-71
2021/12/23 03:09:07;;;;;;;31.17;21.10;;;;;;;-3.80;87.65;98298.75;5079672;28;20461;-70
2021/12/23 03:11:33;;;;;;;32.90;21.63;;;;;;;-3.79;89.03;98295.19;5079153;28;20457;-70
2021/12/23 03:14:00;;;;;;;32.50;20.67;;;;;;;-3.82;88.28;98287.69;5079438;28;20715;-71
2021/12/23 03:16:30;;;;;;;31.77;20.60;;;;;;;-3.83;87.80;98278.25;5079003;28;20904;-70
2021/12/23 03:18:56;;;;;;;31.47;20.80;;;;;;;-3.83;87.47;98287.78;5079381;28;20425;-70
2021/12/23 03:21:23;;;;;;;30.83;20.67;;;;;;;-3.83;87.69;98272.22;5078790;28;20425;-70
2021/12/23 03:23:51;;;;;;;32.23;20.37;;;;;;;-3.75;87.91;98265.44;5078904;28;20863;-70
2021/12/23 03:26:18;;;;;;;33.27;19.80;;;;;;;-3.75;86.79;98269.81;5094757;28;20775;-70
2021/12/23 03:28:44;;;;;;;35.30;20.37;;;;;;;-3.74;87.19;98254.13;5079478;28;20466;-71
2021/12/23 03:31:10;;;;;;;29.43;19.70;;;;;;;-3.76;86.62;98265.59;5079003;28;20855;-70
2021/12/23 03:33:37;;;;;;;35.77;21.27;;;;;;;-3.77;87.53;98251.75;5079080;28;20509;-70
2021/12/23 03:36:05;;;;;;;30.60;21.47;;;;;;;-3.75;86.60;98264.63;5078968;28;20453;-70
2021/12/23 03:38:32;;;;;;;35.40;21.90;;;;;;;-3.76;87.12;98244.81;5079019;28;20429;-70
2021/12/23 03:40:59;;;;;;;32.13;20.07;;;;;;;-3.73;86.95;98240.19;5078924;28;20426;-70
2021/12/23 03:43:28;;;;;;;33.67;21.53;;;;;;;-3.74;87.08;98233.34;5078521;28;20421;-71
2021/12/23 03:45:54;;;;;;;34.00;20.70;;;;;;;-3.79;87.55;98227.66;5078991;28;20461;-70
2021/12/23 03:48:21;;;;;;;32.63;21.03;;;;;;;-3.76;87.04;98224.84;5079391;28;20417;-70
2021/12/23 03:50:48;;;;;;;28.70;19.63;;;;;;;-3.77;87.21;98223.19;5078413;28;20418;-70
2021/12/23 03:53:17;;;;;;;31.90;20.43;;;;;;;-3.77;86.43;98215.41;5078664;28;20424;-70
2021/12/23 03:55:44;;;;;;;30.93;20.67;;;;;;;-3.81;86.70;98221.78;5077210;28;20748;-70
2021/12/23 03:58:10;;;;;;;32.70;20.07;;;;;;;-3.85;86.75;98204.81;5078545;28;20429;-70
2021/12/23 04:00:38;;;;;;;30.73;20.13;;;;;;;-3.81;86.72;98207.97;5078527;28;20421;-70
2021/12/23 04:03:04;;;;;;;27.87;18.57;;;;;;;-3.75;86.44;98210.09;5078430;28;20422;-70
2021/12/23 04:05:30;;;;;;;32.87;19.93;;;;;;;-3.86;85.79;98205.78;5077918;28;20453;-70
2021/12/23 04:07:57;;;;;;;33.57;20.67;;;;;;;-3.78;86.29;98205.97;5078079;28;20836;-70
2021/12/23 04:10:24;;;;;;;30.73;19.30;;;;;;;-3.80;86.31;98217.44;5078114;28;20469;-70
2021/12/23 04:12:52;;;;;;;31.03;20.10;;;;;;;-3.78;86.04;98212.94;5078277;28;20686;-70
2021/12/23 04:15:19;;;;;;;31.00;20.13;;;;;;;-3.76;86.30;98211.03;5078458;28;20476;-70
2021/12/23 04:17:46;;;;;;;29.07;18.57;;;;;;;-3.65;85.57;98214.41;5078084;28;20421;-70
2021/12/23 04:20:18;;;;;;;31.10;19.70;;;;;;;-3.72;85.67;98208.06;5077977;28;20421;-70
2021/12/23 04:22:46;;;;;;;29.97;19.27;;;;;;;-3.67;85.98;98200.69;5078069;28;20770;-70
2021/12/23 04:25:14;;;;;;;31.20;20.73;;;;;;;-3.71;85.97;98203.69;5077908;28;20472;-70
2021/12/23 04:27:41;;;;;;;32.13;20.17;;;;;;;-3.66;85.43;98185.94;5077651;28;20425;-70
2021/12/23 04:30:08;;;;;;;29.77;19.73;;;;;;;-3.61;85.64;98182.00;5077797;28;20462;-70
2021/12/23 04:32:35;;;;;;;29.60;19.47;;;;;;;-3.57;85.41;98179.97;5076494;28;20943;-70
2021/12/23 04:35:02;;;;;;;30.73;20.13;;;;;;;-3.58;85.30;98176.53;5077525;28;20460;-70
2021/12/23 04:37:28;;;;;;;31.93;19.53;;;;;;;-3.51;84.41;98179.47;5077532;28;20719;-70
2021/12/23 04:39:54;;;;;;;27.83;18.03;;;;;;;-3.50;84.56;98184.53;5077461;28;20440;-70
2021/12/23 04:42:21;;;;;;;30.30;19.83;;;;;;;-3.51;84.60;98175.09;5077488;28;20422;-70
2021/12/23 04:44:47;;;;;;;30.40;19.43;;;;;;;-3.46;84.74;98175.53;5077305;28;20449;-70
2021/12/23 04:47:13;;;;;;;33.97;20.07;;;;;;;-3.44;84.57;98173.59;5077388;28;20421;-70
2021/12/23 04:49:40;;;;;;;27.30;19.20;;;;;;;-3.49;84.57;98174.94;5077382;28;20467;-70
2021/12/23 04:52:07;;;;;;;28.73;18.33;;;;;;;-3.46;84.62;98170.34;5077126;28;20837;-70
2021/12/23 04:54:33;;;;;;;28.47;18.93;;;;;;;-3.43;84.52;98175.25;5077224;28;20418;-70
2021/12/23 04:56:59;;;;;;;30.13;18.47;;;;;;;-3.38;84.27;98175.72;5077346;28;20426;-71
2021/12/23 04:59:26;;;;;;;27.37;18.57;;;;;;;-3.36;84.00;98162.56;5077316;28;20414;-70
2021/12/23 05:01:52;;;;;;;28.57;18.73;;;;;;;-3.40;83.54;98154.22;5076747;28;20436;-70
2021/12/23 05:04:19;;;;;;;27.60;18.23;;;;;;;-3.28;84.12;98145.38;5076770;28;20424;-70
2021/12/23 05:06:45;;;;;;;29.33;19.20;;;;;;;-3.33;83.85;98152.75;5076681;28;20425;-70
2021/12/23 05:09:12;;;;;;;26.70;18.27;;;;;;;-3.34;83.39;98152.88;5077053;28;20468;-71
2021/12/23 05:11:38;;;;;;;26.73;18.80;;;;;;;-3.39;83.78;98145.44;5076751;28;20445;-70
2021/12/23 05:14:04;;;;;;;26.60;17.67;;;;;;;-3.38;84.59;98149.72;5076909;28;20437;-70
2021/12/23 05:16:31;;;;;;;33.40;19.43;;;;;;;-3.45;85.20;98140.78;5077069;28;20453;-70
2021/12/23 05:18:57;;;;;;;25.33;17.73;;;;;;;-3.48;84.62;98148.03;5076808;28;20425;-70
2021/12/23 05:21:24;;;;;;;26.33;18.17;;;;;;;-3.52;85.14;98139.66;5076482;28;20421;-70
2021/12/23 05:23:50;;;;;;;27.93;18.30;;;;;;;-3.56;85.25;98140.88;5076773;28;20436;-70
2021/12/23 05:26:16;;;;;;;25.67;17.40;;;;;;;-3.50;85.03;98150.75;5076361;28;20453;-70
2021/12/23 05:28:43;;;;;;;29.83;18.00;;;;;;;-3.49;84.49;98162.78;5076192;28;20428;-70
2021/12/23 05:31:09;;;;;;;29.20;18.70;;;;;;;-3.48;84.53;98164.41;5076357;28;20867;-70
2021/12/23 05:33:35;;;;;;;29.60;17.57;;;;;;;-3.54;84.89;98162.34;5076741;28;20424;-70
2021/12/23 05:36:04;;;;;;;27.33;18.63;;;;;;;-3.52;84.75;98163.03;5076058;28;20457;-71
2021/12/23 05:38:30;;;;;;;31.40;19.60;;;;;;;-3.57;85.41;98160.00;5076344;28;20421;-71
2021/12/23 05:40:57;;;;;;;29.17;18.50;;;;;;;-3.60;85.48;98170.66;5076446;28;20422;-70
2021/12/23 05:43:23;;;;;;;29.27;18.73;;;;;;;-3.55;85.56;98165.91;5075650;28;20725;-70
2021/12/23 05:45:50;;;;;;;29.70;18.47;;;;;;;-3.50;85.03;98150.75;5076271;28;20460;-70
2021/12/23 05:48:16;;;;;;;29.67;18.50;;;;;;;-3.46;85.09;98146.94;5076210;28;20425;-70
2021/12/23 05:50:43;;;;;;;28.67;18.47;;;;;;;-3.41;85.04;98133.53;5076012;28;20457;-70
2021/12/23 05:53:09;;;;;;;30.80;17.93;;;;;;;-3.37;84.46;98114.13;5076017;28;20428;-70
2021/12/23 05:55:36;;;;;;;31.03;18.67;;;;;;;-3.37;84.34;98133.16;5076279;28;20755;-70
2021/12/23 05:58:02;;;;;;;33.43;18.10;;;;;;;-3.33;85.11;98121.56;5075946;28;20720;-70
2021/12/23 06:00:31;;;;;;;28.73;18.33;;;;;;;-3.36;84.04;98120.97;5076717;28;20417;-70
2021/12/23 06:03:01;;;;;;;29.17;18.63;;;;;;;-3.36;84.49;98121.81;5076170;28;20421;-70
2021/12/23 06:05:28;;;;;;;28.10;17.53;;;;;;;-3.45;84.79;98122.59;5075988;28;20459;-70
2021/12/23 06:07:55;;;;;;;31.07;18.73;;;;;;;-3.48;84.47;98124.63;5075908;28;20439;-70
2021/12/23 06:10:21;;;;;;;27.83;18.57;;;;;;;-3.45;84.87;98126.97;5075837;28;20513;-70
2021/12/23 06:12:48;;;;;;;27.70;19.10;;;;;;;-3.55;85.33;98118.31;5076063;28;20421;-70
2021/12/23 06:15:15;;;;;;;27.87;18.17;;;;;;;-3.63;85.87;98113.75;5075982;28;20457;-70
2021/12/23 06:17:42;;;;;;;27.10;17.47;;;;;;;-3.76;86.11;98118.34;5075802;28;20524;-70
2021/12/23 06:20:10;;;;;;;28.30;17.27;;;;;;;-3.70;85.86;98110.03;5075923;28;20714;-70
2021/12/23 06:22:37;;;;;;;28.43;18.30;;;;;;;-3.64;86.22;98106.94;5075853;28;20426;-70
2021/12/23 06:25:06;;;;;;;27.60;18.37;;;;;;;-3.49;84.58;98116.00;5075516;28;20938;-70
2021/12/23 06:27:33;;;;;;;25.77;17.13;;;;;;;-3.40;84.25;98111.78;5075277;28;20832;-70
2021/12/23 06:29:59;;;;;;;26.80;17.63;;;;;;;-3.41;84.44;98115.34;5075019;28;20465;-71
2021/12/23 06:32:25;;;;;;;24.77;17.30;;;;;;;-3.48;85.05;98117.66;5075431;28;20417;-71
2021/12/23 06:34:52;;;;;;;29.70;17.83;;;;;;;-3.44;84.69;98108.63;5075458;28;20464;-70
2021/12/23 06:37:18;;;;;;;30.10;17.93;;;;;;;-3.39;84.68;98114.25;5075053;28;20425;-71
2021/12/23 06:39:46;;;;;;;25.73;16.87;;;;;;;-3.31;84.13;98124.00;5075604;28;20715;-71
2021/12/23 06:42:13;;;;;;;26.77;17.97;;;;;;;-3.29;84.93;98135.09;5075618;28;20430;-71
2021/12/23 06:44:40;;;;;;;26.37;16.93;;;;;;;-3.17;84.52;98118.47;5075614;28;20432;-71
2021/12/23 06:47:06;;;;;;;28.40;17.80;;;;;;;-3.05;83.12;98115.63;5075722;28;20422;-71
2021/12/23 06:49:33;;;;;;;28.80;18.17;;;;;;;-3.09;83.63;98123.81;5075464;28;20757;-71
2021/12/23 06:52:00;;;;;;;25.80;17.80;;;;;;;-3.17;84.43;98124.47;5075717;28;20486;-71
2021/12/23 06:54:27;;;;;;;26.60;17.47;;;;;;;-3.15;84.80;98127.78;5075734;28;20433;-71
2021/12/23 06:56:53;;;;;;;27.27;17.53;;;;;;;-3.14;83.58;98126.81;5078487;28;20716;-71
2021/12/23 06:59:19;;;;;;;28.73;17.57;;;;;;;-3.21;83.21;98122.28;5079418;28;20425;-71
2021/12/23 07:01:47;;;;;;;26.43;17.17;;;;;;;-3.25;83.49;98123.50;5079769;28;20429;-71
2021/12/23 07:04:15;;;;;;;23.20;15.67;;;;;;;-3.25;83.22;98119.09;5078878;28;20841;-71
2021/12/23 07:06:47;;;;;;;24.93;17.23;;;;;;;-3.23;83.78;98118.97;5079250;28;20460;-71
2021/12/23 07:09:14;;;;;;;29.10;18.27;;;;;;;-3.20;82.49;98124.72;5079134;28;20429;-72
2021/12/23 07:11:41;;;;;;;26.93;17.20;;;;;;;-3.14;83.34;98116.41;5078867;28;20445;-71
2021/12/23 07:14:07;;;;;;;25.47;16.90;;;;;;;-3.21;82.85;98109.28;5079107;28;20433;-71
2021/12/23 07:16:37;;;;;;;29.23;17.73;;;;;;;-3.21;82.02;98117.09;5078929;28;20453;-71
2021/12/23 07:19:03;;;;;;;27.43;17.27;;;;;;;-3.22;83.54;98103.25;5079001;28;20433;-71
2021/12/23 07:21:30;;;;;;;25.97;17.97;;;;;;;-3.15;81.96;98109.59;5078994;28;20417;-69
2021/12/23 07:23:56;;;;;;;26.77;17.83;;;;;;;-3.22;83.82;98111.03;5078532;28;20722;-72
2021/12/23 07:26:22;;;;;;;24.20;17.03;;;;;;;-3.25;82.90;98106.09;5078822;28;20457;-71
2021/12/23 07:28:49;;;;;;;27.97;17.83;;;;;;;-3.30;83.54;98100.47;5078710;28;20429;-71
2021/12/23 07:31:15;;;;;;;24.87;16.73;;;;;;;-3.25;83.25;98108.69;5078830;28;20465;-72
2021/12/23 07:33:41;;;;;;;29.60;17.77;;;;;;;-3.30;82.59;98097.88;5078799;28;20421;-71
2021/12/23 07:36:08;;;;;;;30.23;17.13;;;;;;;-3.29;83.96;98107.31;5078596;28;20457;-71
2021/12/23 07:38:35;;;;;;;24.70;16.43;;;;;;;-3.29;82.84;98101.31;5078290;28;20752;-71
2021/12/23 07:41:02;;;;;;;30.33;18.30;;;;;;;-3.25;83.48;98103.50;5078386;28;20453;-71
2021/12/23 07:46:18;;;;;;;26.30;16.13;;;;;;;-3.25;83.37;98102.69;5067889;28;20449;-71
2021/12/23 07:48:44;;;;;;;28.10;18.27;;;;;;;-3.16;83.48;98088.91;5078272;28;20428;-71
2021/12/23 07:51:10;;;;;;;29.20;18.80;;;;;;;-3.17;83.52;98090.66;5078674;28;20468;-71
2021/12/23 07:53:37;;;;;;;28.13;18.47;;;;;;;-3.19;83.05;98102.16;5078207;28;20418;-72
2021/12/23 07:56:03;;;;;;;26.27;17.30;;;;;;;-3.19;83.94;98099.56;5078616;28;20524;-71
2021/12/23 07:58:30;;;;;;;29.87;17.90;;;;;;;-3.16;82.62;98094.91;5078698;28;20492;-71
2021/12/23 08:00:56;;;;;;;33.20;18.73;;;;;;;-3.20;83.36;98090.94;5078296;28;20430;-71
2021/12/23 08:03:22;;;;;;;33.47;18.93;;;;;;;-3.10;83.51;98090.97;5078023;28;20466;-72
2021/12/23 08:05:49;;;;;;;28.97;18.83;;;;;;;-3.09;83.60;98079.59;5077765;28;20923;-71
2021/12/23 08:08:16;;;;;;;31.00;18.73;;;;;;;-3.00;84.23;98086.59;5078047;28;20721;-71
2021/12/23 08:10:42;;;;;;;30.73;19.20;;;;;;;-3.01;83.69;98079.75;5077802;28;20950;-71
2021/12/23 08:13:08;;;;;;;29.33;18.97;;;;;;;-2.97;82.92;98073.34;5078202;28;20421;-71
2021/12/23 08:15:35;;;;;;;26.77;18.57;;;;;;;-2.84;83.18;98077.31;5077820;28;20472;-71
2021/12/23 08:18:01;;;;;;;30.97;20.73;;;;;;;-2.73;82.91;98090.22;5077796;28;20421;-71
2021/12/23 08:20:28;;;;;;;28.77;18.33;;;;;;;-2.65;82.84;98074.75;5077610;28;20425;-71
2021/12/23 08:22:55;;;;;;;30.80;18.83;;;;;;;-2.70;82.33;98063.09;5077878;28;20755;-71
2021/12/23 08:25:22;;;;;;;29.03;19.30;;;;;;;-2.58;82.26;98059.41;5077667;28;20484;-71
2021/12/23 08:27:49;;;;;;;32.07;18.67;;;;;;;-2.56;81.96;98054.88;5077896;28;20782;-71
2021/12/23 08:30:18;;;;;;;29.43;18.77;;;;;;;-2.46;81.84;98043.50;5077282;28;20457;-71
2021/12/23 08:32:46;;;;;;;30.20;19.20;;;;;;;-2.52;82.29;98032.81;5077487;28;20441;-71
2021/12/23 08:35:12;;;;;;;30.47;19.70;;;;;;;-2.39;81.43;98038.56;5077369;28;20456;-71
2021/12/23 08:37:40;;;;;;;28.60;18.43;;;;;;;-2.36;81.40;98046.91;5077600;28;20445;-71
2021/12/23 08:40:09;;;;;;;28.23;18.23;;;;;;;-2.21;81.90;98052.53;5077586;28;20483;-71
2021/12/23 08:42:36;;;;;;;29.17;17.77;;;;;;;-1.98;81.07;98052.03;5077346;28;20421;-71
2021/12/23 08:45:05;;;;;;;28.63;18.23;;;;;;;-2.14;82.27;98048.38;5077278;28;20454;-71
2021/12/23 08:47:32;;;;;;;30.93;18.67;;;;;;;-2.06;81.81;98051.09;5077253;28;20426;-71
2021/12/23 08:49:58;;;;;;;29.57;18.87;;;;;;;-2.04;81.63;98050.00;5077143;28;20458;-72
2021/12/23 08:52:24;;;;;;;29.70;18.70;;;;;;;-2.07;81.88;98047.66;5077312;28;20429;-71
2021/12/23 08:54:51;;;;;;;27.73;18.57;;;;;;;-2.03;81.06;98054.25;5076991;28;20747;-71
2021/12/23 08:57:17;;;;;;;30.50;19.53;;;;;;;-1.96;81.90;98057.09;5076881;28;20418;-71
2021/12/23 08:59:43;;;;;;;27.40;17.67;;;;;;;-1.86;81.31;98034.44;5077027;28;20425;-71
2021/12/23 09:02:11;;;;;;;29.27;18.80;;;;;;;-1.78;80.57;98027.56;5077146;28;20448;-71
2021/12/23 09:04:38;;;;;;;28.00;17.93;;;;;;;-1.83;81.46;98021.16;5076981;28;20520;-71
2021/12/23 09:07:06;;;;;;;30.50;18.67;;;;;;;-1.70;79.90;98017.25;5076500;28;20811;-72
2021/12/23 09:09:33;;;;;;;29.70;19.67;;;;;;;-1.62;80.15;98038.19;5076723;28;20486;-72
2021/12/23 09:12:00;;;;;;;27.77;19.17;;;;;;;-1.36;80.84;98041.78;5076592;28;20575;-72
2021/12/23 09:14:27;;;;;;;29.80;18.37;;;;;;;-1.20;78.19;98043.75;5076719;28;20439;-72
2021/12/23 09:16:54;;;;;;;28.13;18.30;;;;;;;-1.32;79.16;98031.88;5076769;28;20429;-71
2021/12/23 09:19:20;;;;;;;27.27;17.27;;;;;;;-1.46;79.07;98042.78;5076215;28;20421;-72
2021/12/23 09:21:47;;;;;;;33.30;19.03;;;;;;;-1.43;79.79;98043.34;5076688;28;20426;-71
2021/12/23 09:24:13;;;;;;;27.13;17.40;;;;;;;-1.46;80.12;98054.06;5076886;28;20426;-71
2021/12/23 09:26:48;;;;;;;29.03;18.93;;;;;;;-1.41;79.00;98036.19;5076334;28;20912;-71
2021/12/23 09:29:17;;;;;;;32.57;17.63;;;;;;;-1.28;78.97;98052.31;5077069;28;20508;-71
2021/12/23 09:34:27;;;;;;;30.13;18.70;;;;;;;-1.16;78.53;98040.72;5076679;28;20496;-71
2021/12/23 09:36:53;;;;;;;30.13;18.23;;;;;;;-1.07;78.44;98037.22;5076295;28;20816;-71
2021/12/23 09:39:21;;;;;;;29.63;18.17;;;;;;;-0.95;78.66;98038.66;5077217;28;20700;-71
2021/12/23 09:41:47;;;;;;;29.97;19.07;;;;;;;-0.91;79.02;98026.94;5076437;28;20766;-71
2021/12/23 09:44:15;;;;;;;33.63;18.63;;;;;;;-0.92;78.26;98021.88;5076048;28;20708;-71
2021/12/23 09:46:43;;;;;;;27.17;18.20;;;;;;;-0.98;79.07;98023.28;5075835;28;20461;-71
2021/12/23 09:49:09;;;;;;;32.60;18.83;;;;;;;-0.85;79.20;98018.50;5076246;28;20713;-72
2021/12/23 09:51:36;;;;;;;31.70;18.33;;;;;;;-0.82;77.51;98022.63;5076165;28;20473;-71
2021/12/23 09:54:06;;;;;;;29.57;18.30;;;;;;;-0.79;77.71;98023.16;5076440;28;20422;-71
2021/12/23 09:56:34;;;;;;;29.87;18.73;;;;;;;-0.73;78.44;98019.94;5076104;28;20461;-71
2021/12/23 09:59:03;;;;;;;32.63;18.57;;;;;;;-0.58;78.23;98012.41;5076133;28;20438;-71
2021/12/23 10:01:34;;;;;;;28.57;17.73;;;;;;;-0.51;77.68;98009.03;5076281;28;20437;-72
2021/12/23 10:04:01;;;;;;;30.37;18.27;;;;;;;-0.52;77.65;98007.41;5076182;28;20436;-72
2021/12/23 10:06:27;;;;;;;27.43;18.33;;;;;;;-0.42;76.56;98004.69;5076662;28;20457;-71
2021/12/23 10:08:55;;;;;;;25.80;17.37;;;;;;;-0.34;76.68;97999.53;5076016;28;20516;-71
2021/12/23 10:11:29;;;;;;;27.40;18.17;;;;;;;-0.29;76.09;98000.72;5075885;28;20473;-71
2021/12/23 10:30:39;;;;;;;29.87;17.67;;;;;;;0.10;75.93;97991.47;5076306;28;20253;-71
2021/12/23 10:33:32;;;;;;;32.37;17.63;;;;;;;0.23;74.89;97996.31;5079639;28;20185;-71
2021/12/23 10:38:52;;;;;;;28.90;17.37;;;;;;;0.28;75.93;97978.34;5079924;28;20234;-71
2021/12/23 10:41:25;;;;;;;25.63;16.63;;;;;;;0.47;75.76;97979.88;5079789;28;20189;-72
2021/12/23 10:44:02;;;;;;;29.87;16.87;;;;;;;0.31;75.86;97974.59;5079490;28;20572;-71
2021/12/23 10:46:41;;;;;;;30.80;17.50;;;;;;;0.38;76.19;97963.34;5079576;28;20224;-71
2021/12/23 10:49:27;;;;;;;32.07;17.10;;;;;;;0.40;76.14;97968.44;5079904;28;20608;-71
2021/12/23 10:52:01;;;;;;;30.83;17.73;;;;;;;0.38;76.13;97950.28;5079599;28;20208;-71
2021/12/23 11:00:41;;;;;;;25.83;15.80;;;;;;;0.63;75.37;97917.16;5079285;28;20176;-72
2021/12/23 11:03:29;;;;;;;25.03;17.30;;;;;;;0.67;75.42;97923.72;5079316;28;20204;-72
2021/12/23 11:06:09;;;;;;;32.57;17.60;;;;;;;0.76;75.58;97920.16;5079246;28;20252;-71
2021/12/23 11:08:46;;;;;;;28.83;17.77;;;;;;;0.94;75.34;97924.25;5079038;28;20189;-71
2021/12/23 11:28:35;;;;;;;30.40;17.60;;;;;;;1.09;74.41;97903.47;5078522;28;20187;-71
2021/12/23 11:37:01;;;;;;;28.20;17.10;;;;;;;1.33;75.48;97893.81;5078600;28;20338;-71
2021/12/23 11:39:31;;;;;;;30.83;17.27;;;;;;;1.38;74.81;97888.91;5078511;28;20240;-72
2021/12/23 11:42:03;;;;;;;24.47;17.07;;;;;;;1.43;75.45;97881.38;5078025;28;20268;-72
2021/12/23 11:44:31;;;;;;;27.20;17.80;;;;;;;1.55;75.09;97871.34;5078132;28;20279;-72
2021/12/23 11:47:02;;;;;;;26.53;16.57;;;;;;;1.61;74.92;97871.50;5078198;28;20246;-72
2021/12/23 11:49:28;;;;;;;29.77;18.13;;;;;;;1.70;76.14;97870.50;5078767;28;20280;-72
2021/12/23 11:51:55;;;;;;;27.30;16.90;;;;;;;1.84;74.29;97866.34;5078750;28;20260;-72
2021/12/23 11:54:29;;;;;;;30.63;18.23;;;;;;;1.83;74.61;97854.22;5078107;28;20537;-72
2021/12/23 11:57:03;;;;;;;28.53;17.47;;;;;;;1.92;74.17;97845.34;5078377;28;20195;-72
2021/12/23 11:59:32;;;;;;;24.97;16.67;;;;;;;1.93;74.67;97845.19;5078347;28;20540;-72
2021/12/23 12:01:58;;;;;;;27.57;16.63;;;;;;;1.91;74.04;97839.31;5078403;28;20189;-71
2021/12/23 12:04:35;;;;;;;26.80;16.93;;;;;;;2.02;74.43;97831.06;5078080;28;20193;-72
2021/12/23 12:07:13;;;;;;;22.43;15.70;;;;;;;2.18;74.15;97830.16;5078074;28;20188;-72
2021/12/23 12:09:54;;;;;;;26.93;16.90;;;;;;;2.16;74.07;97822.47;5078133;28;20200;-72
2021/12/23 12:12:23;;;;;;;28.67;17.23;;;;;;;2.19;74.80;97818.69;5077382;28;20235;-72
2021/12/23 12:14:51;;;;;;;33.50;17.10;;;;;;;2.24;74.51;97822.44;5077991;28;20217;-72
2021/12/23 12:17:26;;;;;;;27.80;16.60;;;;;;;2.32;74.69;97821.56;5077983;28;20185;-71